sensor_id;sensor_type;location;lat;lon;timestamp;P1;durP1;ratioP1;P2;durP2;ratioP2
61360;SDS011;47232;47.506;18.936;2022-08-07T00:00:20;0.30;;;0.30;;
61360;SDS011;47232;47.506;18.936;2022-08-07T00:02:45;0.30;;;0.30;;
61360;SDS011;47232;47.506;18.936;2022-08-07T00:05:11;0.30;;;0.30;;
61360;SDS011;47232;47.506;18.936;2022-08-07T00:07:37;0.30;;;0.30;;
61360;SDS011;47232;47.506;18.936;2022-08-07T00:10:02;0.20;;;0.20;;
61360;SDS011;47232;47.506;18.936;2022-08-07T00:12:29;0.30;;;0.30;;
61360;SDS011;47232;47.506;18.936;2022-08-07T00:14:55;0.20;;;0.20;;
61360;SDS011;47232;47.506;18.936;2022-08-07T00:17:21;0.30;;;0.30;;
61360;SDS011;47232;47.506;18.936;2022-08-07T00:19:47;0.30;;;0.30;;
61360;SDS011;47232;47.506;18.936;2022-08-07T00:22:13;0.40;;;0.40;;
61360;SDS011;47232;47.506;18.936;2022-08-07T00:24:39;0.30;;;0.30;;
61360;SDS011;47232;47.506;18.936;2022-08-07T00:27:05;0.40;;;0.40;;
61360;SDS011;47232;47.506;18.936;2022-08-07T00:29:31;0.30;;;0.30;;
61360;SDS011;47232;47.506;18.936;2022-08-07T00:31:56;0.20;;;0.20;;
61360;SDS011;47232;47.506;18.936;2022-08-07T00:34:24;0.30;;;0.30;;
61360;SDS011;47232;47.506;18.936;2022-08-07T00:36:50;0.20;;;0.20;;
61360;SDS011;47232;47.506;18.936;2022-08-07T00:39:16;0.30;;;0.30;;
61360;SDS011;47232;47.506;18.936;2022-08-07T00:41:47;0.20;;;0.20;;
61360;SDS011;47232;47.506;18.936;2022-08-07T00:44:17;0.20;;;0.20;;
61360;SDS011;47232;47.506;18.936;2022-08-07T00:46:42;0.20;;;0.20;;
61360;SDS011;47232;47.506;18.936;2022-08-07T00:49:08;0.20;;;0.20;;
61360;SDS011;47232;47.506;18.936;2022-08-07T00:51:34;0.30;;;0.30;;
61360;SDS011;47232;47.506;18.936;2022-08-07T00:54:00;0.20;;;0.20;;
61360;SDS011;47232;47.506;18.936;2022-08-07T00:56:26;0.20;;;0.20;;
61360;SDS011;47232;47.506;18.936;2022-08-07T00:58:54;0.30;;;0.30;;
61360;SDS011;47232;47.506;18.936;2022-08-07T01:01:20;0.30;;;0.30;;
61360;SDS011;47232;47.506;18.936;2022-08-07T01:03:47;0.30;;;0.30;;
61360;SDS011;47232;47.506;18.936;2022-08-07T01:06:14;0.30;;;0.30;;
61360;SDS011;47232;47.506;18.936;2022-08-07T01:08:41;0.30;;;0.30;;
61360;SDS011;47232;47.506;18.936;2022-08-07T01:11:07;0.30;;;0.30;;
61360;SDS011;47232;47.506;18.936;2022-08-07T01:13:33;0.30;;;0.30;;
61360;SDS011;47232;47.506;18.936;2022-08-07T01:15:59;0.30;;;0.30;;
61360;SDS011;47232;47.506;18.936;2022-08-07T01:18:26;0.30;;;0.30;;
61360;SDS011;47232;47.506;18.936;2022-08-07T01:21:00;0.30;;;0.30;;
61360;SDS011;47232;47.506;18.936;2022-08-07T01:23:32;0.30;;;0.30;;
61360;SDS011;47232;47.506;18.936;2022-08-07T01:25:58;0.20;;;0.20;;
61360;SDS011;47232;47.506;18.936;2022-08-07T01:28:24;0.30;;;0.30;;
61360;SDS011;47232;47.506;18.936;2022-08-07T01:30:50;0.20;;;0.20;;
61360;SDS011;47232;47.506;18.936;2022-08-07T01:33:18;0.20;;;0.20;;
61360;SDS011;47232;47.506;18.936;2022-08-07T01:35:44;0.30;;;0.30;;
61360;SDS011;47232;47.506;18.936;2022-08-07T01:38:10;0.20;;;0.20;;
61360;SDS011;47232;47.506;18.936;2022-08-07T01:40:35;0.20;;;0.20;;
61360;SDS011;47232;47.506;18.936;2022-08-07T01:43:04;0.30;;;0.30;;
61360;SDS011;47232;47.506;18.936;2022-08-07T01:45:29;0.20;;;0.20;;
61360;SDS011;47232;47.506;18.936;2022-08-07T01:47:57;0.20;;;0.20;;
61360;SDS011;47232;47.506;18.936;2022-08-07T01:50:23;0.20;;;0.20;;
61360;SDS011;47232;47.506;18.936;2022-08-07T01:52:51;0.20;;;0.20;;
61360;SDS011;47232;47.506;18.936;2022-08-07T01:55:27;0.20;;;0.20;;
61360;SDS011;47232;47.506;18.936;2022-08-07T01:57:58;0.20;;;0.20;;
61360;SDS011;47232;47.506;18.936;2022-08-07T02:00:27;0.20;;;0.20;;
61360;SDS011;47232;47.506;18.936;2022-08-07T02:02:57;0.10;;;0.10;;
61360;SDS011;47232;47.506;18.936;2022-08-07T02:05:32;0.20;;;0.20;;
61360;SDS011;47232;47.506;18.936;2022-08-07T02:08:02;0.30;;;0.30;;
61360;SDS011;47232;47.506;18.936;2022-08-07T02:13:00;0.20;;;0.20;;
61360;SDS011;47232;47.506;18.936;2022-08-07T02:15:28;0.30;;;0.30;;
61360;SDS011;47232;47.506;18.936;2022-08-07T02:17:56;0.20;;;0.20;;
61360;SDS011;47232;47.506;18.936;2022-08-07T02:20:23;0.30;;;0.30;;
61360;SDS011;47232;47.506;18.936;2022-08-07T02:22:57;0.30;;;0.30;;
61360;SDS011;47232;47.506;18.936;2022-08-07T02:25:26;0.30;;;0.30;;
61360;SDS011;47232;47.506;18.936;2022-08-07T02:27:54;0.30;;;0.30;;
61360;SDS011;47232;47.506;18.936;2022-08-07T02:30:22;0.20;;;0.20;;
61360;SDS011;47232;47.506;18.936;2022-08-07T02:32:49;0.30;;;0.30;;
61360;SDS011;47232;47.506;18.936;2022-08-07T02:35:16;0.20;;;0.20;;
61360;SDS011;47232;47.506;18.936;2022-08-07T02:37:43;0.30;;;0.30;;
61360;SDS011;47232;47.506;18.936;2022-08-07T02:40:10;0.20;;;0.20;;
61360;SDS011;47232;47.506;18.936;2022-08-07T02:42:37;0.20;;;0.20;;
61360;SDS011;47232;47.506;18.936;2022-08-07T02:45:04;0.30;;;0.30;;
61360;SDS011;47232;47.506;18.936;2022-08-07T02:47:32;0.20;;;0.20;;
61360;SDS011;47232;47.506;18.936;2022-08-07T02:49:58;0.30;;;0.30;;
61360;SDS011;47232;47.506;18.936;2022-08-07T02:52:52;0.30;;;0.30;;
61360;SDS011;47232;47.506;18.936;2022-08-07T02:55:23;0.20;;;0.20;;
61360;SDS011;47232;47.506;18.936;2022-08-07T02:57:51;0.20;;;0.20;;
61360;SDS011;47232;47.506;18.936;2022-08-07T03:00:19;0.30;;;0.30;;
61360;SDS011;47232;47.506;18.936;2022-08-07T03:02:47;0.30;;;0.30;;
61360;SDS011;47232;47.506;18.936;2022-08-07T03:05:16;0.40;;;0.40;;
61360;SDS011;47232;47.506;18.936;2022-08-07T03:07:43;0.30;;;0.30;;
61360;SDS011;47232;47.506;18.936;2022-08-07T03:10:11;0.40;;;0.40;;
61360;SDS011;47232;47.506;18.936;2022-08-07T03:12:37;0.20;;;0.20;;
61360;SDS011;47232;47.506;18.936;2022-08-07T03:15:05;0.40;;;0.40;;
61360;SDS011;47232;47.506;18.936;2022-08-07T03:17:32;0.40;;;0.40;;
61360;SDS011;47232;47.506;18.936;2022-08-07T03:19:58;0.30;;;0.30;;
61360;SDS011;47232;47.506;18.936;2022-08-07T03:22:25;0.30;;;0.30;;
61360;SDS011;47232;47.506;18.936;2022-08-07T03:24:52;0.30;;;0.30;;
61360;SDS011;47232;47.506;18.936;2022-08-07T03:27:18;0.30;;;0.30;;
61360;SDS011;47232;47.506;18.936;2022-08-07T03:29:48;0.40;;;0.40;;
61360;SDS011;47232;47.506;18.936;2022-08-07T03:32:15;0.20;;;0.20;;
61360;SDS011;47232;47.506;18.936;2022-08-07T03:34:47;0.20;;;0.20;;
61360;SDS011;47232;47.506;18.936;2022-08-07T03:37:15;0.20;;;0.20;;
61360;SDS011;47232;47.506;18.936;2022-08-07T03:39:42;0.30;;;0.30;;
61360;SDS011;47232;47.506;18.936;2022-08-07T03:42:11;0.20;;;0.20;;
61360;SDS011;47232;47.506;18.936;2022-08-07T03:44:38;0.30;;;0.30;;
61360;SDS011;47232;47.506;18.936;2022-08-07T03:47:05;0.30;;;0.30;;
61360;SDS011;47232;47.506;18.936;2022-08-07T03:49:31;0.20;;;0.20;;
61360;SDS011;47232;47.506;18.936;2022-08-07T03:51:58;0.20;;;0.20;;
61360;SDS011;47232;47.506;18.936;2022-08-07T03:54:25;0.30;;;0.30;;
61360;SDS011;47232;47.506;18.936;2022-08-07T03:56:51;0.30;;;0.30;;
61360;SDS011;47232;47.506;18.936;2022-08-07T03:59:18;0.50;;;0.50;;
61360;SDS011;47232;47.506;18.936;2022-08-07T04:01:45;0.30;;;0.30;;
61360;SDS011;47232;47.506;18.936;2022-08-07T04:04:11;0.20;;;0.20;;
61360;SDS011;47232;47.506;18.936;2022-08-07T04:06:41;0.20;;;0.20;;
61360;SDS011;47232;47.506;18.936;2022-08-07T04:09:08;0.30;;;0.30;;
61360;SDS011;47232;47.506;18.936;2022-08-07T04:11:36;0.30;;;0.30;;
61360;SDS011;47232;47.506;18.936;2022-08-07T04:14:02;0.30;;;0.30;;
61360;SDS011;47232;47.506;18.936;2022-08-07T04:16:28;0.20;;;0.20;;
61360;SDS011;47232;47.506;18.936;2022-08-07T04:18:54;0.30;;;0.30;;
61360;SDS011;47232;47.506;18.936;2022-08-07T04:21:20;0.30;;;0.30;;
61360;SDS011;47232;47.506;18.936;2022-08-07T04:23:46;0.30;;;0.30;;
61360;SDS011;47232;47.506;18.936;2022-08-07T04:26:12;0.20;;;0.20;;
61360;SDS011;47232;47.506;18.936;2022-08-07T04:28:41;0.30;;;0.30;;
61360;SDS011;47232;47.506;18.936;2022-08-07T04:31:08;0.30;;;0.30;;
61360;SDS011;47232;47.506;18.936;2022-08-07T04:33:35;0.30;;;0.30;;
61360;SDS011;47232;47.506;18.936;2022-08-07T04:36:01;0.30;;;0.30;;
61360;SDS011;47232;47.506;18.936;2022-08-07T04:38:28;0.20;;;0.20;;
61360;SDS011;47232;47.506;18.936;2022-08-07T04:40:54;0.30;;;0.30;;
61360;SDS011;47232;47.506;18.936;2022-08-07T04:43:21;0.40;;;0.40;;
61360;SDS011;47232;47.506;18.936;2022-08-07T04:45:54;0.20;;;0.20;;
61360;SDS011;47232;47.506;18.936;2022-08-07T04:51:14;0.30;;;0.30;;
61360;SDS011;47232;47.506;18.936;2022-08-07T04:54:35;0.30;;;0.30;;
61360;SDS011;47232;47.506;18.936;2022-08-07T05:07:43;0.30;;;0.30;;
61360;SDS011;47232;47.506;18.936;2022-08-07T05:15:42;0.20;;;0.20;;
61360;SDS011;47232;47.506;18.936;2022-08-07T05:18:15;0.20;;;0.20;;
61360;SDS011;47232;47.506;18.936;2022-08-07T05:20:46;0.30;;;0.30;;
61360;SDS011;47232;47.506;18.936;2022-08-07T05:26:19;0.20;;;0.20;;
61360;SDS011;47232;47.506;18.936;2022-08-07T05:28:47;0.30;;;0.30;;
61360;SDS011;47232;47.506;18.936;2022-08-07T05:31:15;0.30;;;0.30;;
61360;SDS011;47232;47.506;18.936;2022-08-07T05:33:44;0.30;;;0.30;;
61360;SDS011;47232;47.506;18.936;2022-08-07T05:36:11;0.30;;;0.30;;
61360;SDS011;47232;47.506;18.936;2022-08-07T05:38:38;0.30;;;0.30;;
61360;SDS011;47232;47.506;18.936;2022-08-07T05:41:05;0.30;;;0.30;;
61360;SDS011;47232;47.506;18.936;2022-08-07T05:43:32;0.30;;;0.30;;
61360;SDS011;47232;47.506;18.936;2022-08-07T05:45:58;0.40;;;0.40;;
61360;SDS011;47232;47.506;18.936;2022-08-07T05:48:26;0.30;;;0.30;;
61360;SDS011;47232;47.506;18.936;2022-08-07T05:50:53;0.40;;;0.40;;
61360;SDS011;47232;47.506;18.936;2022-08-07T05:53:23;0.30;;;0.30;;
61360;SDS011;47232;47.506;18.936;2022-08-07T05:55:49;0.40;;;0.40;;
61360;SDS011;47232;47.506;18.936;2022-08-07T05:58:15;0.30;;;0.30;;
61360;SDS011;47232;47.506;18.936;2022-08-07T06:00:43;0.30;;;0.30;;
61360;SDS011;47232;47.506;18.936;2022-08-07T06:03:12;0.30;;;0.30;;
61360;SDS011;47232;47.506;18.936;2022-08-07T06:05:40;0.30;;;0.30;;
61360;SDS011;47232;47.506;18.936;2022-08-07T06:08:06;0.30;;;0.30;;
61360;SDS011;47232;47.506;18.936;2022-08-07T06:10:34;0.30;;;0.30;;
61360;SDS011;47232;47.506;18.936;2022-08-07T06:13:00;0.20;;;0.20;;
61360;SDS011;47232;47.506;18.936;2022-08-07T06:15:26;0.30;;;0.30;;
61360;SDS011;47232;47.506;18.936;2022-08-07T06:17:53;0.30;;;0.30;;
61360;SDS011;47232;47.506;18.936;2022-08-07T06:20:20;0.20;;;0.20;;
61360;SDS011;47232;47.506;18.936;2022-08-07T06:22:49;0.30;;;0.30;;
61360;SDS011;47232;47.506;18.936;2022-08-07T06:25:17;0.30;;;0.30;;
61360;SDS011;47232;47.506;18.936;2022-08-07T06:27:43;0.30;;;0.30;;
61360;SDS011;47232;47.506;18.936;2022-08-07T06:30:09;0.30;;;0.30;;
61360;SDS011;47232;47.506;18.936;2022-08-07T06:32:35;0.30;;;0.30;;
61360;SDS011;47232;47.506;18.936;2022-08-07T06:35:00;0.30;;;0.30;;
61360;SDS011;47232;47.506;18.936;2022-08-07T06:37:26;0.20;;;0.20;;
61360;SDS011;47232;47.506;18.936;2022-08-07T06:39:52;0.30;;;0.30;;
61360;SDS011;47232;47.506;18.936;2022-08-07T06:42:23;0.20;;;0.20;;
61360;SDS011;47232;47.506;18.936;2022-08-07T06:44:51;0.30;;;0.30;;
61360;SDS011;47232;47.506;18.936;2022-08-07T06:47:18;0.30;;;0.30;;
61360;SDS011;47232;47.506;18.936;2022-08-07T06:49:44;0.30;;;0.30;;
61360;SDS011;47232;47.506;18.936;2022-08-07T06:52:10;0.30;;;0.30;;
61360;SDS011;47232;47.506;18.936;2022-08-07T06:54:43;0.30;;;0.30;;
61360;SDS011;47232;47.506;18.936;2022-08-07T06:57:23;0.20;;;0.20;;
61360;SDS011;47232;47.506;18.936;2022-08-07T06:59:49;0.40;;;0.40;;
61360;SDS011;47232;47.506;18.936;2022-08-07T07:02:17;0.40;;;0.40;;
61360;SDS011;47232;47.506;18.936;2022-08-07T07:04:45;0.30;;;0.30;;
61360;SDS011;47232;47.506;18.936;2022-08-07T07:07:11;0.20;;;0.20;;
61360;SDS011;47232;47.506;18.936;2022-08-07T07:09:43;0.30;;;0.30;;
61360;SDS011;47232;47.506;18.936;2022-08-07T07:14:55;0.40;;;0.40;;
61360;SDS011;47232;47.506;18.936;2022-08-07T07:17:42;0.20;;;0.20;;
61360;SDS011;47232;47.506;18.936;2022-08-07T07:20:15;0.30;;;0.30;;
61360;SDS011;47232;47.506;18.936;2022-08-07T07:22:44;0.30;;;0.30;;
61360;SDS011;47232;47.506;18.936;2022-08-07T07:25:12;0.40;;;0.40;;
61360;SDS011;47232;47.506;18.936;2022-08-07T07:27:47;0.40;;;0.40;;
61360;SDS011;47232;47.506;18.936;2022-08-07T07:30:17;0.40;;;0.40;;
61360;SDS011;47232;47.506;18.936;2022-08-07T07:32:46;0.30;;;0.30;;
61360;SDS011;47232;47.506;18.936;2022-08-07T07:35:12;0.40;;;0.40;;
61360;SDS011;47232;47.506;18.936;2022-08-07T07:37:40;0.40;;;0.40;;
61360;SDS011;47232;47.506;18.936;2022-08-07T07:40:11;0.30;;;0.30;;
61360;SDS011;47232;47.506;18.936;2022-08-07T07:42:40;0.30;;;0.30;;
61360;SDS011;47232;47.506;18.936;2022-08-07T07:45:08;0.50;;;0.50;;
61360;SDS011;47232;47.506;18.936;2022-08-07T07:47:38;0.30;;;0.30;;
61360;SDS011;47232;47.506;18.936;2022-08-07T07:50:08;0.40;;;0.40;;
61360;SDS011;47232;47.506;18.936;2022-08-07T07:52:36;0.30;;;0.30;;
61360;SDS011;47232;47.506;18.936;2022-08-07T07:55:03;0.30;;;0.30;;
61360;SDS011;47232;47.506;18.936;2022-08-07T07:57:31;0.30;;;0.30;;
61360;SDS011;47232;47.506;18.936;2022-08-07T07:59:59;0.40;;;0.40;;
61360;SDS011;47232;47.506;18.936;2022-08-07T08:02:29;0.40;;;0.40;;
61360;SDS011;47232;47.506;18.936;2022-08-07T08:04:57;0.40;;;0.40;;
61360;SDS011;47232;47.506;18.936;2022-08-07T08:07:25;0.40;;;0.40;;
61360;SDS011;47232;47.506;18.936;2022-08-07T08:09:51;0.40;;;0.40;;
61360;SDS011;47232;47.506;18.936;2022-08-07T08:12:18;0.30;;;0.30;;
61360;SDS011;47232;47.506;18.936;2022-08-07T08:14:45;0.30;;;0.30;;
61360;SDS011;47232;47.506;18.936;2022-08-07T08:17:11;0.30;;;0.30;;
61360;SDS011;47232;47.506;18.936;2022-08-07T08:19:39;0.50;;;0.50;;
61360;SDS011;47232;47.506;18.936;2022-08-07T08:22:06;0.40;;;0.40;;
61360;SDS011;47232;47.506;18.936;2022-08-07T08:24:54;0.30;;;0.30;;
61360;SDS011;47232;47.506;18.936;2022-08-07T08:27:39;0.30;;;0.30;;
61360;SDS011;47232;47.506;18.936;2022-08-07T08:30:09;0.40;;;0.40;;
61360;SDS011;47232;47.506;18.936;2022-08-07T08:32:45;0.40;;;0.40;;
61360;SDS011;47232;47.506;18.936;2022-08-07T08:35:17;0.30;;;0.30;;
61360;SDS011;47232;47.506;18.936;2022-08-07T08:37:46;0.40;;;0.40;;
61360;SDS011;47232;47.506;18.936;2022-08-07T08:40:13;0.40;;;0.40;;
61360;SDS011;47232;47.506;18.936;2022-08-07T08:43:00;0.30;;;0.30;;
61360;SDS011;47232;47.506;18.936;2022-08-07T08:48:38;0.40;;;0.40;;
61360;SDS011;47232;47.506;18.936;2022-08-07T08:51:31;0.40;;;0.40;;
61360;SDS011;47232;47.506;18.936;2022-08-07T08:54:20;0.50;;;0.50;;
61360;SDS011;47232;47.506;18.936;2022-08-07T08:56:51;0.40;;;0.40;;
61360;SDS011;47232;47.506;18.936;2022-08-07T09:00:02;0.40;;;0.40;;
61360;SDS011;47232;47.506;18.936;2022-08-07T09:10:24;0.40;;;0.40;;
61360;SDS011;47232;47.506;18.936;2022-08-07T09:21:10;0.40;;;0.40;;
61360;SDS011;47232;47.506;18.936;2022-08-07T09:24:02;0.40;;;0.40;;
61360;SDS011;47232;47.506;18.936;2022-08-07T09:35:02;0.50;;;0.50;;
61360;SDS011;47232;47.506;18.936;2022-08-07T09:40:34;0.50;;;0.50;;
61360;SDS011;47232;47.506;18.936;2022-08-07T09:45:56;0.50;;;0.50;;
61360;SDS011;47232;47.506;18.936;2022-08-07T09:54:15;0.60;;;0.60;;
61360;SDS011;47232;47.506;18.936;2022-08-07T10:08:14;0.40;;;0.40;;
61360;SDS011;47232;47.506;18.936;2022-08-07T10:11:07;0.50;;;0.50;;
61360;SDS011;47232;47.506;18.936;2022-08-07T10:13:57;0.50;;;0.50;;
61360;SDS011;47232;47.506;18.936;2022-08-07T10:16:54;0.50;;;0.50;;
61360;SDS011;47232;47.506;18.936;2022-08-07T10:19:35;0.40;;;0.40;;
61360;SDS011;47232;47.506;18.936;2022-08-07T10:27:52;0.70;;;0.70;;
61360;SDS011;47232;47.506;18.936;2022-08-07T10:33:42;0.60;;;0.60;;
61360;SDS011;47232;47.506;18.936;2022-08-07T10:38:59;0.50;;;0.50;;
61360;SDS011;47232;47.506;18.936;2022-08-07T10:41:34;0.60;;;0.60;;
61360;SDS011;47232;47.506;18.936;2022-08-07T10:55:32;0.70;;;0.70;;
61360;SDS011;47232;47.506;18.936;2022-08-07T10:58:19;0.80;;;0.80;;
61360;SDS011;47232;47.506;18.936;2022-08-07T11:03:44;0.70;;;0.70;;
61360;SDS011;47232;47.506;18.936;2022-08-07T11:09:29;0.60;;;0.60;;
61360;SDS011;47232;47.506;18.936;2022-08-07T11:14:39;0.60;;;0.60;;
61360;SDS011;47232;47.506;18.936;2022-08-07T11:19:52;0.70;;;0.70;;
61360;SDS011;47232;47.506;18.936;2022-08-07T11:22:30;0.60;;;0.60;;
61360;SDS011;47232;47.506;18.936;2022-08-07T11:25:20;0.70;;;0.70;;
61360;SDS011;47232;47.506;18.936;2022-08-07T11:28:03;0.70;;;0.70;;
61360;SDS011;47232;47.506;18.936;2022-08-07T11:31:06;0.80;;;0.80;;
61360;SDS011;47232;47.506;18.936;2022-08-07T11:42:19;0.70;;;0.70;;
61360;SDS011;47232;47.506;18.936;2022-08-07T11:46:04;0.80;;;0.80;;
61360;SDS011;47232;47.506;18.936;2022-08-07T11:54:08;0.80;;;0.80;;
61360;SDS011;47232;47.506;18.936;2022-08-07T11:56:59;0.70;;;0.70;;
61360;SDS011;47232;47.506;18.936;2022-08-07T12:05:25;0.80;;;0.80;;
61360;SDS011;47232;47.506;18.936;2022-08-07T12:08:18;0.80;;;0.80;;
61360;SDS011;47232;47.506;18.936;2022-08-07T12:11:08;0.80;;;0.80;;
61360;SDS011;47232;47.506;18.936;2022-08-07T12:16:04;0.90;;;0.90;;
61360;SDS011;47232;47.506;18.936;2022-08-07T12:18:47;0.90;;;0.90;;
61360;SDS011;47232;47.506;18.936;2022-08-07T12:21:23;0.90;;;0.90;;
61360;SDS011;47232;47.506;18.936;2022-08-07T12:24:06;1.00;;;1.00;;
61360;SDS011;47232;47.506;18.936;2022-08-07T12:26:42;0.80;;;0.80;;
61360;SDS011;47232;47.506;18.936;2022-08-07T12:34:50;0.80;;;0.80;;
61360;SDS011;47232;47.506;18.936;2022-08-07T12:37:19;0.70;;;0.70;;
61360;SDS011;47232;47.506;18.936;2022-08-07T12:39:49;0.70;;;0.70;;
61360;SDS011;47232;47.506;18.936;2022-08-07T12:42:23;0.80;;;0.80;;
61360;SDS011;47232;47.506;18.936;2022-08-07T12:44:51;0.90;;;0.90;;
61360;SDS011;47232;47.506;18.936;2022-08-07T12:57:57;0.80;;;0.80;;
61360;SDS011;47232;47.506;18.936;2022-08-07T13:08:55;0.90;;;0.90;;
61360;SDS011;47232;47.506;18.936;2022-08-07T13:19:44;0.80;;;0.80;;
61360;SDS011;47232;47.506;18.936;2022-08-07T13:22:25;0.80;;;0.80;;
61360;SDS011;47232;47.506;18.936;2022-08-07T13:24:57;0.90;;;0.90;;
61360;SDS011;47232;47.506;18.936;2022-08-07T13:30:09;0.90;;;0.90;;
61360;SDS011;47232;47.506;18.936;2022-08-07T13:33:00;1.00;;;1.00;;
61360;SDS011;47232;47.506;18.936;2022-08-07T13:35:49;1.00;;;1.00;;
61360;SDS011;47232;47.506;18.936;2022-08-07T13:38:28;1.00;;;1.00;;
61360;SDS011;47232;47.506;18.936;2022-08-07T13:41:10;0.90;;;0.90;;
61360;SDS011;47232;47.506;18.936;2022-08-07T13:43:46;0.90;;;0.90;;
61360;SDS011;47232;47.506;18.936;2022-08-07T13:46:14;1.00;;;1.00;;
61360;SDS011;47232;47.506;18.936;2022-08-07T13:48:43;1.00;;;1.00;;
61360;SDS011;47232;47.506;18.936;2022-08-07T13:51:24;0.90;;;0.90;;
61360;SDS011;47232;47.506;18.936;2022-08-07T13:53:54;1.00;;;1.00;;
61360;SDS011;47232;47.506;18.936;2022-08-07T13:56:28;1.00;;;1.00;;
61360;SDS011;47232;47.506;18.936;2022-08-07T13:58:56;1.00;;;1.00;;
61360;SDS011;47232;47.506;18.936;2022-08-07T14:01:31;1.10;;;1.10;;
61360;SDS011;47232;47.506;18.936;2022-08-07T14:04:06;1.10;;;1.10;;
61360;SDS011;47232;47.506;18.936;2022-08-07T14:06:36;1.10;;;1.10;;
61360;SDS011;47232;47.506;18.936;2022-08-07T14:09:09;1.00;;;1.00;;
61360;SDS011;47232;47.506;18.936;2022-08-07T14:11:45;1.00;;;1.00;;
61360;SDS011;47232;47.506;18.936;2022-08-07T14:14:27;1.00;;;1.00;;
61360;SDS011;47232;47.506;18.936;2022-08-07T14:16:59;1.10;;;1.10;;
61360;SDS011;47232;47.506;18.936;2022-08-07T14:21:59;1.00;;;1.00;;
61360;SDS011;47232;47.506;18.936;2022-08-07T14:24:33;1.00;;;1.00;;
61360;SDS011;47232;47.506;18.936;2022-08-07T14:27:07;0.90;;;0.90;;
61360;SDS011;47232;47.506;18.936;2022-08-07T14:29:39;0.90;;;0.90;;
61360;SDS011;47232;47.506;18.936;2022-08-07T14:32:11;0.90;;;0.90;;
61360;SDS011;47232;47.506;18.936;2022-08-07T14:34:40;0.90;;;0.90;;
61360;SDS011;47232;47.506;18.936;2022-08-07T14:37:12;0.90;;;0.90;;
61360;SDS011;47232;47.506;18.936;2022-08-07T14:39:41;0.90;;;0.90;;
61360;SDS011;47232;47.506;18.936;2022-08-07T14:42:10;0.90;;;0.90;;
61360;SDS011;47232;47.506;18.936;2022-08-07T14:44:37;1.00;;;1.00;;
61360;SDS011;47232;47.506;18.936;2022-08-07T14:47:09;0.90;;;0.90;;
61360;SDS011;47232;47.506;18.936;2022-08-07T14:49:36;1.00;;;1.00;;
61360;SDS011;47232;47.506;18.936;2022-08-07T14:52:08;1.10;;;1.10;;
61360;SDS011;47232;47.506;18.936;2022-08-07T14:54:39;1.00;;;1.00;;
61360;SDS011;47232;47.506;18.936;2022-08-07T14:57:11;1.00;;;1.00;;
61360;SDS011;47232;47.506;18.936;2022-08-07T14:59:39;1.10;;;1.10;;
61360;SDS011;47232;47.506;18.936;2022-08-07T15:02:16;0.90;;;0.90;;
61360;SDS011;47232;47.506;18.936;2022-08-07T15:04:46;1.10;;;1.10;;
61360;SDS011;47232;47.506;18.936;2022-08-07T15:07:29;1.20;;;1.20;;
61360;SDS011;47232;47.506;18.936;2022-08-07T15:09:57;1.10;;;1.10;;
61360;SDS011;47232;47.506;18.936;2022-08-07T15:12:26;1.10;;;1.10;;
61360;SDS011;47232;47.506;18.936;2022-08-07T15:15:15;1.30;;;1.30;;
61360;SDS011;47232;47.506;18.936;2022-08-07T15:18:07;1.40;;;1.40;;
61360;SDS011;47232;47.506;18.936;2022-08-07T15:20:37;1.40;;;1.40;;
61360;SDS011;47232;47.506;18.936;2022-08-07T15:23:25;1.40;;;1.40;;
61360;SDS011;47232;47.506;18.936;2022-08-07T15:25:59;1.40;;;1.40;;
61360;SDS011;47232;47.506;18.936;2022-08-07T15:28:26;1.50;;;1.50;;
61360;SDS011;47232;47.506;18.936;2022-08-07T15:31:03;1.50;;;1.50;;
61360;SDS011;47232;47.506;18.936;2022-08-07T15:33:34;1.60;;;1.60;;
61360;SDS011;47232;47.506;18.936;2022-08-07T15:36:05;1.70;;;1.70;;
61360;SDS011;47232;47.506;18.936;2022-08-07T15:38:33;1.70;;;1.70;;
61360;SDS011;47232;47.506;18.936;2022-08-07T15:44:08;1.60;;;1.60;;
61360;SDS011;47232;47.506;18.936;2022-08-07T15:46:39;1.80;;;1.80;;
61360;SDS011;47232;47.506;18.936;2022-08-07T15:49:12;1.80;;;1.80;;
61360;SDS011;47232;47.506;18.936;2022-08-07T15:51:52;1.80;;;1.80;;
61360;SDS011;47232;47.506;18.936;2022-08-07T15:54:29;1.70;;;1.70;;
61360;SDS011;47232;47.506;18.936;2022-08-07T15:56:58;1.60;;;1.60;;
61360;SDS011;47232;47.506;18.936;2022-08-07T15:59:29;1.80;;;1.80;;
61360;SDS011;47232;47.506;18.936;2022-08-07T16:01:56;1.80;;;1.80;;
61360;SDS011;47232;47.506;18.936;2022-08-07T16:05:05;1.60;;;1.60;;
61360;SDS011;47232;47.506;18.936;2022-08-07T16:08:23;1.70;;;1.70;;
61360;SDS011;47232;47.506;18.936;2022-08-07T16:10:56;1.70;;;1.70;;
61360;SDS011;47232;47.506;18.936;2022-08-07T16:14:04;1.60;;;1.60;;
61360;SDS011;47232;47.506;18.936;2022-08-07T16:26:11;1.20;;;1.20;;
61360;SDS011;47232;47.506;18.936;2022-08-07T17:00:00;0.80;;;0.80;;
61360;SDS011;47232;47.506;18.936;2022-08-07T17:07:56;0.90;;;0.90;;
61360;SDS011;47232;47.506;18.936;2022-08-07T17:12:55;0.80;;;0.80;;
61360;SDS011;47232;47.506;18.936;2022-08-07T17:20:38;0.70;;;0.70;;
61360;SDS011;47232;47.506;18.936;2022-08-07T17:29:00;0.80;;;0.80;;
61360;SDS011;47232;47.506;18.936;2022-08-07T17:36:51;0.70;;;0.70;;
61360;SDS011;47232;47.506;18.936;2022-08-07T17:39:21;0.60;;;0.60;;
61360;SDS011;47232;47.506;18.936;2022-08-07T17:42:00;0.80;;;0.80;;
61360;SDS011;47232;47.506;18.936;2022-08-07T17:44:45;0.70;;;0.70;;
61360;SDS011;47232;47.506;18.936;2022-08-07T17:50:17;0.60;;;0.60;;
61360;SDS011;47232;47.506;18.936;2022-08-07T17:52:45;0.50;;;0.50;;
61360;SDS011;47232;47.506;18.936;2022-08-07T17:55:36;0.60;;;0.60;;
61360;SDS011;47232;47.506;18.936;2022-08-07T17:58:22;0.60;;;0.60;;
61360;SDS011;47232;47.506;18.936;2022-08-07T18:01:01;0.50;;;0.50;;
61360;SDS011;47232;47.506;18.936;2022-08-07T18:03:39;0.50;;;0.50;;
61360;SDS011;47232;47.506;18.936;2022-08-07T18:06:14;0.60;;;0.60;;
61360;SDS011;47232;47.506;18.936;2022-08-07T18:08:47;0.40;;;0.40;;
61360;SDS011;47232;47.506;18.936;2022-08-07T18:13:47;0.50;;;0.50;;
61360;SDS011;47232;47.506;18.936;2022-08-07T18:16:25;0.60;;;0.60;;
61360;SDS011;47232;47.506;18.936;2022-08-07T18:21:54;0.30;;;0.30;;
61360;SDS011;47232;47.506;18.936;2022-08-07T18:29:59;0.30;;;0.30;;
61360;SDS011;47232;47.506;18.936;2022-08-07T18:49:22;0.50;;;0.50;;
61360;SDS011;47232;47.506;18.936;2022-08-07T18:54:36;0.40;;;0.40;;
61360;SDS011;47232;47.506;18.936;2022-08-07T18:57:19;0.40;;;0.40;;
61360;SDS011;47232;47.506;18.936;2022-08-07T19:00:05;0.40;;;0.40;;
61360;SDS011;47232;47.506;18.936;2022-08-07T19:02:37;0.50;;;0.50;;
61360;SDS011;47232;47.506;18.936;2022-08-07T19:10:45;0.40;;;0.40;;
61360;SDS011;47232;47.506;18.936;2022-08-07T19:23:43;0.40;;;0.40;;
61360;SDS011;47232;47.506;18.936;2022-08-07T19:26:11;0.50;;;0.50;;
61360;SDS011;47232;47.506;18.936;2022-08-07T19:28:41;0.30;;;0.30;;
61360;SDS011;47232;47.506;18.936;2022-08-07T19:31:11;0.40;;;0.40;;
61360;SDS011;47232;47.506;18.936;2022-08-07T19:33:41;0.30;;;0.30;;
61360;SDS011;47232;47.506;18.936;2022-08-07T19:36:11;0.40;;;0.40;;
61360;SDS011;47232;47.506;18.936;2022-08-07T19:38:39;0.50;;;0.50;;
61360;SDS011;47232;47.506;18.936;2022-08-07T19:41:08;0.30;;;0.30;;
61360;SDS011;47232;47.506;18.936;2022-08-07T19:43:36;0.50;;;0.50;;
61360;SDS011;47232;47.506;18.936;2022-08-07T19:46:07;0.50;;;0.50;;
61360;SDS011;47232;47.506;18.936;2022-08-07T19:48:39;0.40;;;0.40;;
61360;SDS011;47232;47.506;18.936;2022-08-07T19:51:07;0.40;;;0.40;;